createdAt,value
2023-01-25T00:01:13.686Z,8.20
2023-01-25T00:03:41.419Z,8.20
2023-01-25T00:06:09.601Z,8.20
2023-01-25T00:08:38.647Z,8.20
2023-01-25T00:11:06.410Z,8.20
2023-01-25T00:13:34.044Z,8.20
2023-01-25T00:16:03.469Z,8.10
2023-01-25T00:18:31.739Z,8.10
2023-01-25T00:20:59.390Z,8.10
2023-01-25T00:23:27.077Z,8.10
2023-01-25T00:25:58.806Z,8.10
2023-01-25T00:28:27.049Z,8.10
2023-01-25T00:30:58.717Z,8.10
2023-01-25T00:33:39.033Z,8.10
2023-01-25T00:36:37.339Z,8.10
2023-01-25T00:39:06.419Z,8.10
2023-01-25T00:41:34.033Z,8.10
2023-01-25T00:44:01.828Z,8.10
2023-01-25T00:46:29.545Z,8.20
2023-01-25T00:48:57.788Z,8.20
2023-01-25T00:51:26.209Z,8.10
2023-01-25T00:53:54.400Z,8.00
2023-01-25T00:56:22.211Z,8.00
2023-01-25T00:58:50.025Z,8.10
2023-01-25T01:01:24.686Z,8.10
2023-01-25T01:06:43.249Z,8.10
2023-01-25T01:09:16.358Z,8.00
2023-01-25T01:11:44.126Z,8.00
2023-01-25T01:14:12.428Z,7.90
2023-01-25T01:16:40.473Z,7.90
2023-01-25T01:19:10.200Z,8.00
2023-01-25T01:21:38.044Z,8.00
2023-01-25T01:24:06.354Z,7.90
2023-01-25T01:26:34.188Z,8.00
2023-01-25T01:29:02.656Z,7.90
2023-01-25T01:31:30.676Z,8.10
2023-01-25T01:34:16.070Z,7.90
2023-01-25T01:36:43.869Z,8.00
2023-01-25T01:39:11.581Z,7.90
2023-01-25T01:41:39.518Z,7.80
2023-01-25T01:44:20.734Z,7.90
2023-01-25T01:46:59.860Z,8.00
2023-01-25T01:49:32.845Z,7.90
2023-01-25T01:52:17.059Z,7.90
2023-01-25T01:54:54.766Z,7.90
2023-01-25T01:57:34.863Z,8.00
2023-01-25T02:00:24.096Z,8.00
2023-01-25T02:02:52.647Z,8.00
2023-01-25T02:05:35.654Z,8.20
2023-01-25T02:08:05.750Z,8.20
2023-01-25T02:10:34.852Z,8.20
2023-01-25T02:13:02.567Z,8.30
2023-01-25T02:15:40.812Z,8.30
2023-01-25T02:18:10.925Z,8.30
2023-01-25T02:20:42.323Z,8.20
2023-01-25T02:23:32.291Z,8.10
2023-01-25T02:26:04.233Z,8.00
2023-01-25T02:28:34.671Z,8.10
2023-01-25T02:31:02.579Z,8.20
2023-01-25T02:33:31.059Z,8.10
2023-01-25T02:36:08.087Z,8.00
2023-01-25T02:38:42.500Z,8.00
2023-01-25T02:41:18.622Z,8.10
2023-01-25T02:43:46.991Z,8.10
2023-01-25T02:46:33.181Z,8.00
2023-01-25T02:49:04.102Z,8.00
2023-01-25T02:51:34.613Z,8.00
2023-01-25T02:54:04.932Z,8.00
2023-01-25T02:56:33.376Z,7.90
2023-01-25T02:59:05.756Z,8.00
2023-01-25T03:01:36.979Z,8.00
2023-01-25T03:04:05.859Z,8.00
2023-01-25T03:06:35.206Z,7.90
2023-01-25T03:09:04.995Z,7.90
2023-01-25T03:11:33.825Z,7.80
2023-01-25T03:14:01.641Z,7.80
2023-01-25T03:16:31.912Z,7.80
2023-01-25T03:19:00.621Z,7.70
2023-01-25T03:21:29.131Z,7.80
2023-01-25T03:23:59.883Z,7.80
2023-01-25T03:26:31.744Z,7.80
2023-01-25T03:29:08.848Z,7.70
2023-01-25T03:31:39.948Z,7.70
2023-01-25T03:34:08.132Z,7.80
2023-01-25T03:36:39.772Z,7.80
2023-01-25T03:39:07.699Z,7.60
2023-01-25T03:41:40.366Z,7.60
2023-01-25T03:44:11.697Z,7.50
2023-01-25T03:46:41.433Z,7.50
2023-01-25T03:49:09.924Z,7.50
2023-01-25T03:51:38.802Z,7.50
2023-01-25T03:54:08.542Z,7.40
2023-01-25T03:56:38.782Z,7.30
2023-01-25T03:59:21.579Z,7.30
2023-01-25T04:01:50.469Z,7.30
2023-01-25T04:04:19.222Z,7.30
2023-01-25T04:06:48.491Z,7.40
2023-01-25T04:09:16.832Z,7.30
2023-01-25T04:11:52.027Z,7.20
2023-01-25T04:14:31.818Z,7.20
2023-01-25T04:17:08.479Z,7.10
2023-01-25T04:19:51.607Z,7.10
2023-01-25T04:22:22.121Z,7.10
2023-01-25T04:24:51.779Z,7.10
2023-01-25T04:27:19.638Z,7.00
2023-01-25T04:29:59.409Z,6.90
2023-01-25T04:32:28.090Z,6.90
2023-01-25T04:34:56.420Z,7.00
2023-01-25T04:37:27.631Z,6.90
2023-01-25T04:39:58.697Z,7.00
2023-01-25T04:42:27.941Z,7.00
2023-01-25T04:44:57.544Z,7.00
2023-01-25T04:47:25.303Z,7.00
2023-01-25T04:49:53.191Z,7.10
2023-01-25T04:52:24.709Z,7.10
2023-01-25T04:54:52.506Z,7.10
2023-01-25T04:57:20.213Z,7.00
2023-01-25T04:59:51.969Z,7.10
2023-01-25T05:02:20.818Z,7.10
2023-01-25T05:04:48.829Z,7.10
2023-01-25T05:07:17.573Z,7.10
2023-01-25T05:09:45.604Z,7.10
2023-01-25T05:12:13.862Z,7.10
2023-01-25T05:14:58.422Z,7.20
2023-01-25T05:17:26.669Z,7.10
2023-01-25T05:19:54.411Z,7.10
2023-01-25T05:22:24.397Z,7.20
2023-01-25T05:24:54.418Z,7.20
2023-01-25T05:27:23.223Z,7.20
2023-01-25T05:29:57.475Z,7.20
2023-01-25T05:32:37.343Z,7.30
2023-01-25T05:35:05.316Z,7.40
2023-01-25T05:37:33.031Z,7.40
2023-01-25T05:40:07.438Z,7.40
2023-01-25T05:42:38.440Z,7.50
2023-01-25T05:45:11.624Z,7.50
2023-01-25T05:47:40.716Z,7.60
2023-01-25T05:50:09.640Z,7.50
2023-01-25T05:53:03.680Z,7.60
2023-01-25T05:55:31.471Z,7.60
2023-01-25T05:58:04.308Z,7.60
2023-01-25T06:00:32.522Z,7.60
2023-01-25T06:03:03.520Z,7.60
2023-01-25T06:05:33.987Z,7.60
2023-01-25T06:08:01.893Z,7.60
2023-01-25T06:10:38.478Z,7.60
2023-01-25T06:13:06.090Z,7.60
2023-01-25T06:15:33.767Z,7.80
2023-01-25T06:18:24.953Z,7.90
2023-01-25T06:21:25.125Z,7.90
2023-01-25T06:23:52.934Z,7.90
2023-01-25T06:26:20.645Z,7.80
2023-01-25T06:28:48.445Z,7.80
2023-01-25T06:31:18.470Z,7.80
2023-01-25T06:33:53.002Z,7.80
2023-01-25T06:36:23.446Z,7.80
2023-01-25T06:38:52.532Z,7.80
2023-01-25T06:41:21.106Z,7.80
2023-01-25T06:43:51.495Z,7.90
2023-01-25T06:46:19.854Z,7.80
2023-01-25T06:48:47.484Z,7.90
2023-01-25T06:51:15.638Z,7.90
2023-01-25T06:53:45.393Z,7.90
2023-01-25T06:56:18.698Z,7.90
2023-01-25T06:58:46.992Z,7.90
2023-01-25T07:01:27.285Z,7.90
2023-01-25T07:03:57.603Z,7.90
2023-01-25T07:06:26.731Z,7.90
2023-01-25T07:08:54.567Z,7.90
2023-01-25T07:11:22.196Z,7.90
2023-01-25T07:13:49.838Z,7.90
2023-01-25T07:16:20.947Z,7.90
2023-01-25T07:18:49.130Z,7.90
2023-01-25T07:21:20.634Z,8.00
2023-01-25T07:23:52.492Z,8.00
2023-01-25T07:26:25.453Z,8.00
2023-01-25T07:28:54.501Z,8.00
2023-01-25T07:31:22.625Z,8.00
2023-01-25T07:33:51.738Z,8.10
2023-01-25T07:36:20.064Z,8.10
2023-01-25T07:38:48.256Z,8.10
2023-01-25T07:41:16.671Z,8.10
2023-01-25T07:43:44.389Z,8.10
2023-01-25T07:46:13.925Z,8.20
2023-01-25T07:48:48.696Z,8.30
2023-01-25T07:51:24.018Z,8.40
2023-01-25T07:53:57.733Z,8.40
2023-01-25T07:56:30.672Z,8.50
2023-01-25T07:59:00.134Z,8.60
2023-01-25T08:01:29.195Z,8.60
2023-01-25T08:03:58.399Z,8.60
2023-01-25T08:06:35.967Z,8.70
2023-01-25T08:09:12.207Z,8.70
2023-01-25T08:11:40.228Z,8.80
2023-01-25T08:14:08.518Z,8.70
2023-01-25T08:16:36.238Z,8.70
2023-01-25T08:19:04.481Z,8.70
2023-01-25T08:21:34.373Z,8.60
2023-01-25T08:24:07.003Z,8.60
2023-01-25T08:26:36.474Z,8.60
2023-01-25T08:29:05.749Z,8.60
2023-01-25T08:31:35.169Z,8.60
2023-01-25T08:34:03.390Z,8.70
2023-01-25T08:36:31.276Z,8.60
2023-01-25T08:39:07.752Z,8.70
2023-01-25T08:41:36.184Z,8.80
2023-01-25T08:44:04.114Z,8.80
2023-01-25T08:46:33.564Z,8.80
2023-01-25T08:49:02.564Z,8.80
2023-01-25T08:51:32.146Z,8.90
2023-01-25T08:54:05.128Z,8.90
2023-01-25T08:56:33.360Z,8.90
2023-01-25T08:59:01.114Z,8.90
2023-01-25T09:01:29.005Z,8.90
2023-01-25T09:03:56.915Z,8.90
2023-01-25T09:06:24.894Z,8.90
2023-01-25T09:08:52.863Z,9.00
2023-01-25T09:11:22.783Z,9.10
2023-01-25T09:13:50.845Z,9.10
2023-01-25T09:16:28.688Z,9.10
2023-01-25T09:18:58.726Z,9.10
2023-01-25T09:21:27.142Z,9.00
2023-01-25T09:24:10.673Z,9.00
2023-01-25T09:26:42.891Z,9.10
2023-01-25T09:29:12.315Z,9.10
2023-01-25T09:31:41.208Z,9.20
2023-01-25T09:34:36.536Z,9.30
2023-01-25T09:37:04.246Z,9.60
2023-01-25T09:39:31.936Z,9.90
2023-01-25T09:42:22.539Z,10.20
2023-01-25T09:45:15.340Z,10.50
2023-01-25T09:47:52.438Z,10.70
2023-01-25T09:51:01.718Z,10.80
2023-01-25T09:53:39.531Z,10.70
2023-01-25T09:56:20.225Z,10.60
2023-01-25T09:58:51.735Z,10.60
2023-01-25T10:01:45.095Z,10.60
2023-01-25T10:04:25.599Z,10.60
2023-01-25T10:07:01.362Z,10.50
2023-01-25T10:09:44.229Z,10.50
2023-01-25T10:12:36.362Z,10.50
2023-01-25T10:15:22.428Z,10.50
2023-01-25T10:18:04.274Z,10.50
2023-01-25T10:20:39.837Z,10.50
2023-01-25T10:23:39.854Z,10.50
2023-01-25T10:26:18.938Z,10.40
2023-01-25T10:29:04.897Z,10.30
2023-01-25T10:31:35.596Z,10.40
2023-01-25T10:34:15.291Z,10.50
2023-01-25T10:36:43.677Z,10.50
2023-01-25T10:39:11.399Z,10.50
2023-01-25T10:41:42.424Z,10.50
2023-01-25T10:44:22.124Z,10.50
2023-01-25T10:47:14.496Z,10.40
2023-01-25T10:49:46.618Z,10.40
2023-01-25T10:52:27.031Z,10.50
2023-01-25T10:55:23.292Z,10.70
2023-01-25T10:57:59.350Z,11.00
2023-01-25T11:00:40.259Z,11.20
2023-01-25T11:03:20.509Z,11.30
2023-01-25T11:05:57.461Z,11.50
2023-01-25T11:08:26.469Z,11.30
2023-01-25T11:10:55.054Z,11.40
2023-01-25T11:13:26.714Z,11.20
2023-01-25T11:16:01.577Z,11.20
2023-01-25T11:18:35.209Z,11.40
2023-01-25T11:21:19.473Z,11.60
2023-01-25T11:24:07.155Z,11.80
2023-01-25T11:26:36.664Z,12.00
2023-01-25T11:29:20.805Z,12.10
2023-01-25T11:31:54.605Z,12.20
2023-01-25T11:34:26.779Z,12.50
2023-01-25T11:37:20.487Z,12.60
2023-01-25T11:39:54.222Z,12.20
2023-01-25T11:42:46.822Z,12.40
2023-01-25T11:45:32.918Z,12.50
2023-01-25T11:48:43.652Z,12.60
2023-01-25T11:51:30.453Z,12.60
2023-01-25T11:54:13.232Z,12.60
2023-01-25T11:56:53.192Z,12.60
2023-01-25T11:59:20.818Z,12.60
2023-01-25T12:02:28.458Z,12.60
2023-01-25T12:05:21.982Z,12.50
2023-01-25T12:07:59.142Z,12.50
2023-01-25T12:10:36.252Z,12.70
2023-01-25T12:13:36.990Z,12.70
2023-01-25T12:16:21.755Z,12.70
2023-01-25T12:19:21.399Z,12.70
2023-01-25T12:21:55.294Z,12.90
2023-01-25T12:24:42.490Z,12.80
2023-01-25T12:27:23.323Z,12.90
2023-01-25T12:30:12.515Z,12.80
2023-01-25T12:32:52.673Z,12.90
2023-01-25T12:35:27.022Z,13.10
2023-01-25T12:38:18.930Z,13.30
2023-01-25T12:40:51.635Z,13.50
2023-01-25T12:43:25.577Z,13.70
2023-01-25T12:45:54.083Z,13.70
2023-01-25T12:48:29.006Z,13.80
2023-01-25T12:50:58.781Z,13.80
2023-01-25T12:53:47.762Z,13.90
2023-01-25T12:56:44.096Z,14.10
2023-01-25T12:59:38.473Z,14.00
2023-01-25T13:02:12.169Z,14.10
2023-01-25T13:04:51.903Z,14.10
2023-01-25T13:07:54.709Z,14.00
2023-01-25T13:10:33.831Z,14.10
2023-01-25T13:13:04.326Z,14.10
2023-01-25T13:15:44.137Z,14.10
2023-01-25T13:18:33.309Z,14.20
2023-01-25T13:21:04.037Z,14.10
2023-01-25T13:23:44.258Z,14.20
2023-01-25T13:26:24.177Z,14.20
2023-01-25T13:28:54.129Z,14.20
2023-01-25T13:31:51.480Z,14.00
2023-01-25T13:34:42.439Z,14.00
2023-01-25T13:37:20.773Z,14.00
2023-01-25T13:40:06.539Z,13.90
2023-01-25T13:42:37.468Z,13.70
2023-01-25T13:45:14.547Z,13.70
2023-01-25T13:47:44.027Z,13.60
2023-01-25T13:50:14.481Z,13.60
2023-01-25T13:53:06.591Z,13.10
2023-01-25T13:55:44.219Z,13.20
2023-01-25T13:58:22.090Z,13.00
2023-01-25T14:00:54.531Z,13.20
2023-01-25T14:03:30.193Z,13.30
2023-01-25T14:06:00.664Z,13.10
2023-01-25T14:08:29.373Z,13.20
2023-01-25T14:10:58.079Z,13.20
2023-01-25T14:13:25.979Z,13.00
2023-01-25T14:15:55.156Z,12.80
2023-01-25T14:18:31.608Z,12.60
2023-01-25T14:21:16.166Z,12.20
2023-01-25T14:23:44.039Z,12.00
2023-01-25T14:26:28.596Z,11.80
2023-01-25T14:29:01.862Z,11.70
2023-01-25T14:31:36.531Z,11.50
2023-01-25T14:34:05.093Z,11.50
2023-01-25T14:36:34.817Z,11.30
2023-01-25T14:39:13.631Z,11.20
2023-01-25T14:41:51.621Z,11.10
2023-01-25T14:44:27.117Z,11.10
2023-01-25T14:47:22.967Z,11.10
2023-01-25T14:49:50.695Z,11.00
2023-01-25T14:52:20.746Z,10.90
2023-01-25T14:54:55.734Z,11.00
2023-01-25T14:57:40.179Z,11.10
2023-01-25T15:00:09.627Z,11.00
2023-01-25T15:02:57.772Z,10.90
2023-01-25T15:05:31.165Z,10.70
2023-01-25T15:08:08.133Z,10.80
2023-01-25T15:10:37.689Z,10.80
2023-01-25T15:13:15.474Z,10.70
2023-01-25T15:15:58.735Z,10.80
2023-01-25T15:18:53.364Z,10.90
2023-01-25T15:21:29.826Z,10.80
2023-01-25T15:24:05.105Z,10.80
2023-01-25T15:26:35.388Z,10.70
2023-01-25T15:29:24.278Z,10.80
2023-01-25T15:31:52.132Z,10.80
2023-01-25T15:34:24.145Z,10.90
2023-01-25T15:36:51.931Z,10.80
2023-01-25T15:39:20.778Z,10.80
2023-01-25T15:41:49.024Z,10.70
2023-01-25T15:44:17.818Z,10.70
2023-01-25T15:46:49.201Z,10.70
2023-01-25T15:49:39.562Z,10.60
2023-01-25T15:52:07.352Z,10.40
2023-01-25T15:54:35.178Z,10.30
2023-01-25T15:57:02.953Z,10.20
2023-01-25T15:59:30.783Z,10.20
2023-01-25T16:01:58.556Z,10.00
2023-01-25T16:04:26.498Z,9.80
2023-01-25T16:06:55.575Z,9.70
2023-01-25T16:09:30.028Z,9.70
2023-01-25T16:11:59.859Z,9.60
2023-01-25T16:14:30.375Z,9.50
2023-01-25T16:17:05.984Z,9.50
2023-01-25T16:19:34.067Z,9.50
2023-01-25T16:22:01.819Z,9.50
2023-01-25T16:24:29.587Z,9.70
2023-01-25T16:26:59.198Z,9.70
2023-01-25T16:29:27.473Z,9.60
2023-01-25T16:31:56.253Z,9.50
2023-01-25T16:34:24.235Z,9.50
2023-01-25T16:36:52.985Z,9.60
2023-01-25T16:39:23.405Z,9.60
2023-01-25T16:41:51.169Z,9.60
2023-01-25T16:44:18.990Z,9.60
2023-01-25T16:46:50.552Z,9.50
2023-01-25T16:49:30.737Z,9.50
2023-01-25T16:52:02.354Z,9.50
2023-01-25T16:54:30.134Z,9.50
2023-01-25T16:56:58.969Z,9.50
2023-01-25T16:59:27.971Z,9.60
2023-01-25T17:01:55.805Z,9.60
2023-01-25T17:04:23.470Z,9.60
2023-01-25T17:06:53.144Z,9.50
2023-01-25T17:09:24.006Z,9.60
2023-01-25T17:11:53.814Z,9.70
2023-01-25T17:14:21.976Z,9.70
2023-01-25T17:16:51.977Z,9.70
2023-01-25T17:19:20.618Z,9.70
2023-01-25T17:21:48.384Z,9.70
2023-01-25T17:24:19.598Z,9.60
2023-01-25T17:26:47.593Z,9.60
2023-01-25T17:29:15.330Z,9.60
2023-01-25T17:31:44.556Z,9.60
2023-01-25T17:34:16.337Z,9.70
2023-01-25T17:36:45.192Z,9.70
2023-01-25T17:39:15.668Z,9.70
2023-01-25T17:41:48.518Z,9.70
2023-01-25T17:44:21.919Z,9.70
2023-01-25T17:46:50.592Z,9.70
2023-01-25T17:49:18.970Z,9.60
2023-01-25T17:51:46.808Z,9.50
2023-01-25T17:54:14.615Z,9.50
2023-01-25T17:56:42.375Z,9.40
2023-01-25T17:59:11.676Z,9.40
2023-01-25T18:01:42.698Z,9.50
2023-01-25T18:04:11.113Z,9.50
2023-01-25T18:06:38.912Z,9.60
2023-01-25T18:09:07.006Z,9.50
2023-01-25T18:11:36.855Z,9.50
2023-01-25T18:14:08.357Z,9.40
2023-01-25T18:16:38.976Z,9.30
2023-01-25T18:19:07.148Z,9.20
2023-01-25T18:21:35.999Z,9.20
2023-01-25T18:24:36.267Z,9.10
2023-01-25T18:27:23.165Z,9.10
2023-01-25T18:30:26.245Z,9.10
2023-01-25T18:32:53.919Z,9.00
2023-01-25T18:35:21.711Z,9.20
2023-01-25T18:37:49.402Z,9.30
2023-01-25T18:40:19.076Z,9.40
2023-01-25T18:42:47.280Z,9.30
2023-01-25T18:45:15.225Z,9.40
2023-01-25T18:47:42.902Z,9.40
2023-01-25T18:50:12.042Z,9.40
2023-01-25T18:52:39.888Z,9.20
2023-01-25T18:55:07.853Z,9.20
2023-01-25T18:57:35.636Z,9.20
2023-01-25T19:00:05.656Z,9.10
2023-01-25T19:02:33.370Z,9.20
2023-01-25T19:05:01.053Z,9.20
2023-01-25T19:07:29.238Z,9.20
2023-01-25T19:09:57.051Z,9.10
2023-01-25T19:12:24.792Z,9.20
2023-01-25T19:14:52.779Z,9.10
2023-01-25T19:17:20.444Z,9.10
2023-01-25T19:19:48.150Z,9.10
2023-01-25T19:22:15.918Z,9.10
2023-01-25T19:24:43.544Z,9.00
2023-01-25T19:27:11.276Z,8.80
2023-01-25T19:29:39.191Z,8.70
2023-01-25T19:32:06.971Z,8.70
2023-01-25T19:34:34.748Z,8.80
2023-01-25T19:37:02.674Z,8.80
2023-01-25T19:39:30.487Z,8.80
2023-01-25T19:41:58.284Z,8.90
2023-01-25T19:44:25.958Z,8.90
2023-01-25T19:46:54.073Z,8.90
2023-01-25T19:49:22.445Z,8.90
2023-01-25T19:51:53.324Z,8.90
2023-01-25T19:54:21.989Z,8.90
2023-01-25T19:56:50.193Z,8.90
2023-01-25T19:59:20.439Z,8.90
2023-01-25T20:01:48.949Z,8.90
2023-01-25T20:04:22.475Z,8.90
2023-01-25T20:06:51.323Z,8.90
2023-01-25T20:09:28.067Z,9.00
2023-01-25T20:11:57.302Z,8.90
2023-01-25T20:14:25.011Z,9.00
2023-01-25T20:16:52.963Z,8.90
2023-01-25T20:19:20.722Z,8.60
2023-01-25T20:21:48.412Z,8.60
2023-01-25T20:24:16.475Z,8.60
2023-01-25T20:26:44.713Z,8.50
2023-01-25T20:29:13.243Z,8.50
2023-01-25T20:31:46.305Z,8.50
2023-01-25T20:34:19.947Z,8.50
2023-01-25T20:36:48.617Z,8.40
2023-01-25T20:39:19.162Z,8.40
2023-01-25T20:41:48.056Z,8.30
2023-01-25T20:44:18.085Z,8.20
2023-01-25T20:46:46.073Z,8.30
2023-01-25T20:49:18.600Z,8.20
2023-01-25T20:51:46.996Z,8.20
2023-01-25T20:54:15.284Z,8.20
2023-01-25T20:56:43.297Z,8.10
2023-01-25T20:59:11.456Z,8.10
2023-01-25T21:01:39.408Z,8.10
2023-01-25T21:04:09.788Z,8.00
2023-01-25T21:06:38.871Z,7.90
2023-01-25T21:09:07.262Z,7.80
2023-01-25T21:11:34.989Z,7.80
2023-01-25T21:14:02.838Z,7.80
2023-01-25T21:16:30.756Z,7.70
2023-01-25T21:19:00.367Z,7.70
2023-01-25T21:21:30.560Z,7.60
2023-01-25T21:24:00.352Z,7.60
2023-01-25T21:26:30.775Z,7.60
2023-01-25T21:29:00.378Z,7.60
2023-01-25T21:31:33.641Z,7.50
2023-01-25T21:34:02.588Z,7.50
2023-01-25T21:36:30.356Z,7.50
2023-01-25T21:38:58.630Z,7.50
2023-01-25T21:41:33.520Z,7.50
2023-01-25T21:44:20.683Z,7.30
2023-01-25T21:47:16.303Z,7.00
2023-01-25T21:49:54.952Z,6.80
2023-01-25T21:52:23.557Z,6.60
2023-01-25T21:54:51.938Z,6.60
2023-01-25T21:57:20.658Z,6.60
2023-01-25T21:59:49.008Z,6.60
2023-01-25T22:02:16.803Z,6.80
2023-01-25T22:04:44.744Z,6.90
2023-01-25T22:07:12.499Z,6.90
2023-01-25T22:09:40.290Z,7.00
2023-01-25T22:12:08.114Z,7.10
2023-01-25T22:14:36.719Z,7.20
2023-01-25T22:17:05.288Z,7.20
2023-01-25T22:19:33.468Z,7.20
2023-01-25T22:22:01.217Z,7.20
2023-01-25T22:24:29.019Z,7.30
2023-01-25T22:27:24.583Z,7.20
2023-01-25T22:29:52.573Z,7.30
2023-01-25T22:32:20.295Z,7.20
2023-01-25T22:34:48.133Z,7.20
2023-01-25T22:37:15.790Z,7.20
2023-01-25T22:39:44.912Z,7.30
2023-01-25T22:42:12.599Z,7.20
2023-01-25T22:44:40.336Z,7.20
2023-01-25T22:47:08.013Z,7.10
2023-01-25T22:49:35.628Z,7.10
2023-01-25T22:52:03.355Z,7.10
2023-01-25T22:54:30.989Z,7.10
2023-01-25T22:57:00.697Z,7.00
2023-01-25T22:59:28.404Z,7.00
2023-01-25T23:01:56.143Z,7.00
2023-01-25T23:04:23.988Z,7.00
2023-01-25T23:07:02.628Z,7.00
2023-01-25T23:09:30.518Z,7.00
2023-01-25T23:11:58.243Z,7.00
2023-01-25T23:14:44.437Z,6.90
2023-01-25T23:17:30.419Z,6.90
2023-01-25T23:19:58.134Z,6.90
2023-01-25T23:22:25.839Z,6.90
2023-01-25T23:24:53.568Z,7.00
2023-01-25T23:27:21.266Z,7.00
2023-01-25T23:29:50.112Z,7.00
2023-01-25T23:32:18.824Z,7.10
2023-01-25T23:34:46.570Z,7.10
2023-01-25T23:37:16.789Z,7.10
2023-01-25T23:39:44.719Z,7.10
2023-01-25T23:42:12.344Z,7.10
2023-01-25T23:44:41.625Z,7.10
2023-01-25T23:47:09.442Z,7.10
2023-01-25T23:49:37.247Z,7.20
2023-01-25T23:52:05.159Z,7.10
2023-01-25T23:54:32.932Z,7.10
2023-01-25T23:57:00.688Z,7.10
2023-01-25T23:59:28.451Z,7.00
